sensor_id;sensor_type;location;lat;lon;timestamp;temperature;humidity
3548;DHT22;1788;49.400;11.092;2022-09-02T00:00:49;17.40;50.40
3548;DHT22;1788;49.400;11.092;2022-09-02T00:03:14;17.40;50.20
3548;DHT22;1788;49.400;11.092;2022-09-02T00:05:41;17.40;50.20
3548;DHT22;1788;49.400;11.092;2022-09-02T00:08:08;17.40;50.30
3548;DHT22;1788;49.400;11.092;2022-09-02T00:10:35;17.30;50.30
3548;DHT22;1788;49.400;11.092;2022-09-02T00:13:02;17.30;50.30
3548;DHT22;1788;49.400;11.092;2022-09-02T00:15:29;17.30;50.30
3548;DHT22;1788;49.400;11.092;2022-09-02T00:17:55;17.30;50.30
3548;DHT22;1788;49.400;11.092;2022-09-02T00:20:22;17.30;50.40
3548;DHT22;1788;49.400;11.092;2022-09-02T00:22:49;17.20;51.10
3548;DHT22;1788;49.400;11.092;2022-09-02T00:25:16;17.20;50.50
3548;DHT22;1788;49.400;11.092;2022-09-02T00:27:42;17.20;50.60
3548;DHT22;1788;49.400;11.092;2022-09-02T00:30:09;17.10;50.70
3548;DHT22;1788;49.400;11.092;2022-09-02T00:32:36;17.20;50.90
3548;DHT22;1788;49.400;11.092;2022-09-02T00:35:03;17.00;50.90
3548;DHT22;1788;49.400;11.092;2022-09-02T00:37:30;17.00;50.90
3548;DHT22;1788;49.400;11.092;2022-09-02T00:39:57;16.90;51.00
3548;DHT22;1788;49.400;11.092;2022-09-02T00:42:24;16.90;51.00
3548;DHT22;1788;49.400;11.092;2022-09-02T00:44:52;16.80;51.20
3548;DHT22;1788;49.400;11.092;2022-09-02T00:47:19;16.80;51.20
3548;DHT22;1788;49.400;11.092;2022-09-02T00:49:47;16.70;51.40
3548;DHT22;1788;49.400;11.092;2022-09-02T00:52:13;16.70;51.30
3548;DHT22;1788;49.400;11.092;2022-09-02T00:54:43;16.70;51.50
3548;DHT22;1788;49.400;11.092;2022-09-02T00:57:07;16.60;51.50
3548;DHT22;1788;49.400;11.092;2022-09-02T01:02:00;16.60;51.60
3548;DHT22;1788;49.400;11.092;2022-09-02T01:04:27;16.60;51.70
3548;DHT22;1788;49.400;11.092;2022-09-02T01:06:54;16.50;51.60
3548;DHT22;1788;49.400;11.092;2022-09-02T01:09:21;16.40;51.80
3548;DHT22;1788;49.400;11.092;2022-09-02T01:11:48;16.40;51.90
3548;DHT22;1788;49.400;11.092;2022-09-02T01:14:15;16.40;52.00
3548;DHT22;1788;49.400;11.092;2022-09-02T01:16:43;16.30;52.00
3548;DHT22;1788;49.400;11.092;2022-09-02T01:19:10;16.20;52.20
3548;DHT22;1788;49.400;11.092;2022-09-02T01:21:35;16.20;52.10
3548;DHT22;1788;49.400;11.092;2022-09-02T01:24:03;16.20;52.40
3548;DHT22;1788;49.400;11.092;2022-09-02T01:26:30;16.20;52.20
3548;DHT22;1788;49.400;11.092;2022-09-02T01:28:56;16.10;52.20
3548;DHT22;1788;49.400;11.092;2022-09-02T01:31:23;16.10;52.30
3548;DHT22;1788;49.400;11.092;2022-09-02T01:33:49;16.10;52.40
3548;DHT22;1788;49.400;11.092;2022-09-02T01:36:16;16.10;52.40
3548;DHT22;1788;49.400;11.092;2022-09-02T01:38:43;16.00;52.40
3548;DHT22;1788;49.400;11.092;2022-09-02T01:41:10;15.90;52.50
3548;DHT22;1788;49.400;11.092;2022-09-02T01:43:37;15.90;52.50
3548;DHT22;1788;49.400;11.092;2022-09-02T01:46:03;15.90;52.50
3548;DHT22;1788;49.400;11.092;2022-09-02T01:48:30;15.90;52.60
3548;DHT22;1788;49.400;11.092;2022-09-02T01:50:58;15.80;52.60
3548;DHT22;1788;49.400;11.092;2022-09-02T01:53:25;15.80;52.70
3548;DHT22;1788;49.400;11.092;2022-09-02T01:55:52;15.70;52.60
3548;DHT22;1788;49.400;11.092;2022-09-02T01:58:18;15.60;52.70
3548;DHT22;1788;49.400;11.092;2022-09-02T02:00:45;15.50;52.80
3548;DHT22;1788;49.400;11.092;2022-09-02T02:03:13;15.30;53.20
3548;DHT22;1788;49.400;11.092;2022-09-02T02:05:39;15.20;53.10
3548;DHT22;1788;49.400;11.092;2022-09-02T02:08:06;15.20;53.30
3548;DHT22;1788;49.400;11.092;2022-09-02T02:10:33;15.20;53.50
3548;DHT22;1788;49.400;11.092;2022-09-02T02:13:00;15.20;53.50
3548;DHT22;1788;49.400;11.092;2022-09-02T02:15:27;15.20;53.50
3548;DHT22;1788;49.400;11.092;2022-09-02T02:17:53;15.20;53.50
3548;DHT22;1788;49.400;11.092;2022-09-02T02:20:21;15.30;53.50
3548;DHT22;1788;49.400;11.092;2022-09-02T02:22:47;15.20;53.50
3548;DHT22;1788;49.400;11.092;2022-09-02T02:25:15;15.20;53.50
3548;DHT22;1788;49.400;11.092;2022-09-02T02:27:41;15.20;53.50
3548;DHT22;1788;49.400;11.092;2022-09-02T02:30:08;15.20;53.50
3548;DHT22;1788;49.400;11.092;2022-09-02T02:32:34;15.20;53.60
3548;DHT22;1788;49.400;11.092;2022-09-02T02:35:01;15.10;53.60
3548;DHT22;1788;49.400;11.092;2022-09-02T02:37:28;15.10;53.80
3548;DHT22;1788;49.400;11.092;2022-09-02T02:39:55;15.10;53.80
3548;DHT22;1788;49.400;11.092;2022-09-02T02:42:22;15.10;53.90
3548;DHT22;1788;49.400;11.092;2022-09-02T02:44:49;15.10;53.90
3548;DHT22;1788;49.400;11.092;2022-09-02T02:47:16;15.10;53.90
3548;DHT22;1788;49.400;11.092;2022-09-02T02:49:42;15.00;53.80
3548;DHT22;1788;49.400;11.092;2022-09-02T02:52:09;15.00;53.90
3548;DHT22;1788;49.400;11.092;2022-09-02T02:54:36;15.00;54.00
3548;DHT22;1788;49.400;11.092;2022-09-02T02:57:03;15.00;54.00
3548;DHT22;1788;49.400;11.092;2022-09-02T02:59:30;14.90;54.10
3548;DHT22;1788;49.400;11.092;2022-09-02T03:01:57;14.90;54.10
3548;DHT22;1788;49.400;11.092;2022-09-02T03:04:23;15.00;54.10
3548;DHT22;1788;49.400;11.092;2022-09-02T03:06:51;14.90;54.10
3548;DHT22;1788;49.400;11.092;2022-09-02T03:09:18;14.90;54.20
3548;DHT22;1788;49.400;11.092;2022-09-02T03:11:45;14.90;54.20
3548;DHT22;1788;49.400;11.092;2022-09-02T03:14:12;14.80;54.20
3548;DHT22;1788;49.400;11.092;2022-09-02T03:16:39;14.80;54.10
3548;DHT22;1788;49.400;11.092;2022-09-02T03:19:05;14.70;54.10
3548;DHT22;1788;49.400;11.092;2022-09-02T03:21:32;14.70;54.20
3548;DHT22;1788;49.400;11.092;2022-09-02T03:23:59;14.70;54.30
3548;DHT22;1788;49.400;11.092;2022-09-02T03:26:26;14.60;54.40
3548;DHT22;1788;49.400;11.092;2022-09-02T03:28:53;14.60;54.30
3548;DHT22;1788;49.400;11.092;2022-09-02T03:31:20;14.60;54.40
3548;DHT22;1788;49.400;11.092;2022-09-02T03:33:47;14.60;54.50
3548;DHT22;1788;49.400;11.092;2022-09-02T03:38:41;14.50;54.50
3548;DHT22;1788;49.400;11.092;2022-09-02T03:41:09;14.40;54.60
3548;DHT22;1788;49.400;11.092;2022-09-02T03:43:35;14.40;54.60
3548;DHT22;1788;49.400;11.092;2022-09-02T03:46:03;14.40;54.90
3548;DHT22;1788;49.400;11.092;2022-09-02T03:48:29;14.30;54.60
3548;DHT22;1788;49.400;11.092;2022-09-02T03:50:56;14.30;54.60
3548;DHT22;1788;49.400;11.092;2022-09-02T03:53:22;14.30;54.70
3548;DHT22;1788;49.400;11.092;2022-09-02T03:55:49;14.30;54.80
3548;DHT22;1788;49.400;11.092;2022-09-02T03:58:17;14.20;54.80
3548;DHT22;1788;49.400;11.092;2022-09-02T04:00:48;14.20;54.80
3548;DHT22;1788;49.400;11.092;2022-09-02T04:03:11;14.20;54.90
3548;DHT22;1788;49.400;11.092;2022-09-02T04:05:39;14.10;54.80
3548;DHT22;1788;49.400;11.092;2022-09-02T04:08:06;14.10;54.90
3548;DHT22;1788;49.400;11.092;2022-09-02T04:10:33;14.00;54.90
3548;DHT22;1788;49.400;11.092;2022-09-02T04:13:00;14.00;54.90
3548;DHT22;1788;49.400;11.092;2022-09-02T04:15:27;14.00;55.10
3548;DHT22;1788;49.400;11.092;2022-09-02T04:17:54;14.00;55.10
3548;DHT22;1788;49.400;11.092;2022-09-02T04:20:20;13.90;55.00
3548;DHT22;1788;49.400;11.092;2022-09-02T04:22:47;13.90;55.10
3548;DHT22;1788;49.400;11.092;2022-09-02T04:25:15;13.90;55.10
3548;DHT22;1788;49.400;11.092;2022-09-02T04:27:41;13.90;55.10
3548;DHT22;1788;49.400;11.092;2022-09-02T04:30:08;13.80;55.10
3548;DHT22;1788;49.400;11.092;2022-09-02T04:32:34;13.80;55.20
3548;DHT22;1788;49.400;11.092;2022-09-02T04:35:01;13.80;55.20
3548;DHT22;1788;49.400;11.092;2022-09-02T04:37:28;13.80;55.30
3548;DHT22;1788;49.400;11.092;2022-09-02T04:39:54;13.70;55.30
3548;DHT22;1788;49.400;11.092;2022-09-02T04:42:22;13.70;55.30
3548;DHT22;1788;49.400;11.092;2022-09-02T04:44:48;13.70;55.30
3548;DHT22;1788;49.400;11.092;2022-09-02T04:47:15;13.70;55.30
3548;DHT22;1788;49.400;11.092;2022-09-02T04:49:41;13.70;55.30
3548;DHT22;1788;49.400;11.092;2022-09-02T04:52:08;13.70;55.40
3548;DHT22;1788;49.400;11.092;2022-09-02T04:54:36;13.70;55.40
3548;DHT22;1788;49.400;11.092;2022-09-02T04:57:02;13.70;55.50
3548;DHT22;1788;49.400;11.092;2022-09-02T04:59:29;13.60;55.40
3548;DHT22;1788;49.400;11.092;2022-09-02T05:01:56;13.60;55.40
3548;DHT22;1788;49.400;11.092;2022-09-02T05:04:22;13.60;55.50
3548;DHT22;1788;49.400;11.092;2022-09-02T05:06:49;13.60;55.50
3548;DHT22;1788;49.400;11.092;2022-09-02T05:09:15;13.60;55.60
3548;DHT22;1788;49.400;11.092;2022-09-02T05:11:42;13.60;55.60
3548;DHT22;1788;49.400;11.092;2022-09-02T05:14:09;13.60;55.70
3548;DHT22;1788;49.400;11.092;2022-09-02T05:16:36;13.60;55.70
3548;DHT22;1788;49.400;11.092;2022-09-02T05:19:03;13.60;55.80
3548;DHT22;1788;49.400;11.092;2022-09-02T05:21:29;13.60;55.80
3548;DHT22;1788;49.400;11.092;2022-09-02T05:23:55;13.60;55.90
3548;DHT22;1788;49.400;11.092;2022-09-02T05:26:22;13.60;55.90
3548;DHT22;1788;49.400;11.092;2022-09-02T05:28:49;13.70;56.10
3548;DHT22;1788;49.400;11.092;2022-09-02T05:31:17;13.70;56.10
3548;DHT22;1788;49.400;11.092;2022-09-02T05:33:43;13.80;56.20
3548;DHT22;1788;49.400;11.092;2022-09-02T05:36:12;13.80;56.20
3548;DHT22;1788;49.400;11.092;2022-09-02T05:38:37;13.80;56.20
3548;DHT22;1788;49.400;11.092;2022-09-02T05:41:04;13.90;56.60
3548;DHT22;1788;49.400;11.092;2022-09-02T05:43:30;14.00;56.40
3548;DHT22;1788;49.400;11.092;2022-09-02T05:45:56;14.00;56.40
3548;DHT22;1788;49.400;11.092;2022-09-02T05:48:23;14.10;56.40
3548;DHT22;1788;49.400;11.092;2022-09-02T05:50:50;14.20;56.50
3548;DHT22;1788;49.400;11.092;2022-09-02T05:53:16;14.30;56.60
3548;DHT22;1788;49.400;11.092;2022-09-02T05:55:43;14.40;56.60
3548;DHT22;1788;49.400;11.092;2022-09-02T05:58:09;14.50;56.70
3548;DHT22;1788;49.400;11.092;2022-09-02T06:00:37;14.70;56.90
3548;DHT22;1788;49.400;11.092;2022-09-02T06:03:03;14.70;56.80
3548;DHT22;1788;49.400;11.092;2022-09-02T06:05:30;14.80;56.80
3548;DHT22;1788;49.400;11.092;2022-09-02T06:07:57;14.90;56.80
3548;DHT22;1788;49.400;11.092;2022-09-02T06:10:24;15.10;56.90
3548;DHT22;1788;49.400;11.092;2022-09-02T06:12:51;15.20;56.90
3548;DHT22;1788;49.400;11.092;2022-09-02T06:15:18;15.30;56.90
3548;DHT22;1788;49.400;11.092;2022-09-02T06:17:45;15.40;56.90
3548;DHT22;1788;49.400;11.092;2022-09-02T06:20:11;15.60;56.90
3548;DHT22;1788;49.400;11.092;2022-09-02T06:22:39;15.70;56.90
3548;DHT22;1788;49.400;11.092;2022-09-02T06:25:06;15.90;56.90
3548;DHT22;1788;49.400;11.092;2022-09-02T06:27:33;16.00;56.70
3548;DHT22;1788;49.400;11.092;2022-09-02T06:29:59;16.20;56.70
3548;DHT22;1788;49.400;11.092;2022-09-02T06:32:28;16.40;56.60
3548;DHT22;1788;49.400;11.092;2022-09-02T06:34:54;16.60;56.50
3548;DHT22;1788;49.400;11.092;2022-09-02T06:37:21;16.70;56.30
3548;DHT22;1788;49.400;11.092;2022-09-02T06:39:48;17.10;56.40
3548;DHT22;1788;49.400;11.092;2022-09-02T06:42:15;17.10;56.20
3548;DHT22;1788;49.400;11.092;2022-09-02T06:44:42;17.30;56.10
3548;DHT22;1788;49.400;11.092;2022-09-02T06:47:09;17.40;55.90
3548;DHT22;1788;49.400;11.092;2022-09-02T06:49:36;17.60;55.80
3548;DHT22;1788;49.400;11.092;2022-09-02T06:52:02;17.70;55.60
3548;DHT22;1788;49.400;11.092;2022-09-02T06:54:29;17.90;55.60
3548;DHT22;1788;49.400;11.092;2022-09-02T06:56:57;18.10;55.40
3548;DHT22;1788;49.400;11.092;2022-09-02T06:59:24;18.40;55.20
3548;DHT22;1788;49.400;11.092;2022-09-02T07:01:51;18.30;55.10
3548;DHT22;1788;49.400;11.092;2022-09-02T07:04:18;18.60;54.30
3548;DHT22;1788;49.400;11.092;2022-09-02T07:06:46;18.60;54.70
3548;DHT22;1788;49.400;11.092;2022-09-02T07:09:14;18.70;54.40
3548;DHT22;1788;49.400;11.092;2022-09-02T07:11:38;18.80;54.20
3548;DHT22;1788;49.400;11.092;2022-09-02T07:14:06;19.00;54.10
3548;DHT22;1788;49.400;11.092;2022-09-02T07:16:34;19.10;54.00
3548;DHT22;1788;49.400;11.092;2022-09-02T07:18:59;19.20;53.80
3548;DHT22;1788;49.400;11.092;2022-09-02T07:21:26;19.30;53.60
3548;DHT22;1788;49.400;11.092;2022-09-02T07:23:52;19.40;53.40
3548;DHT22;1788;49.400;11.092;2022-09-02T07:26:19;19.60;53.30
3548;DHT22;1788;49.400;11.092;2022-09-02T07:28:46;19.70;53.20
3548;DHT22;1788;49.400;11.092;2022-09-02T07:31:14;19.80;52.90
3548;DHT22;1788;49.400;11.092;2022-09-02T07:33:40;20.00;52.80
3548;DHT22;1788;49.400;11.092;2022-09-02T07:36:06;20.10;52.60
3548;DHT22;1788;49.400;11.092;2022-09-02T07:38:34;20.30;52.30
3548;DHT22;1788;49.400;11.092;2022-09-02T07:41:00;20.30;52.00
3548;DHT22;1788;49.400;11.092;2022-09-02T07:43:28;20.50;51.90
3548;DHT22;1788;49.400;11.092;2022-09-02T07:45:55;20.70;51.30
3548;DHT22;1788;49.400;11.092;2022-09-02T07:48:22;20.70;51.30
3548;DHT22;1788;49.400;11.092;2022-09-02T07:50:49;20.90;50.80
3548;DHT22;1788;49.400;11.092;2022-09-02T07:53:16;20.90;50.80
3548;DHT22;1788;49.400;11.092;2022-09-02T07:55:43;21.20;50.30
3548;DHT22;1788;49.400;11.092;2022-09-02T07:58:10;21.20;50.30
3548;DHT22;1788;49.400;11.092;2022-09-02T08:00:37;21.30;49.80
3548;DHT22;1788;49.400;11.092;2022-09-02T08:03:03;21.40;49.30
3548;DHT22;1788;49.400;11.092;2022-09-02T08:05:30;21.50;48.80
3548;DHT22;1788;49.400;11.092;2022-09-02T08:07:58;21.50;48.10
3548;DHT22;1788;49.400;11.092;2022-09-02T08:10:24;21.50;48.10
3548;DHT22;1788;49.400;11.092;2022-09-02T08:12:50;21.50;47.90
3548;DHT22;1788;49.400;11.092;2022-09-02T08:15:18;21.60;47.80
3548;DHT22;1788;49.400;11.092;2022-09-02T08:17:45;21.60;47.70
3548;DHT22;1788;49.400;11.092;2022-09-02T08:20:12;21.60;47.30
3548;DHT22;1788;49.400;11.092;2022-09-02T08:22:38;21.70;47.10
3548;DHT22;1788;49.400;11.092;2022-09-02T08:25:06;21.80;46.80
3548;DHT22;1788;49.400;11.092;2022-09-02T08:27:32;21.80;46.80
3548;DHT22;1788;49.400;11.092;2022-09-02T08:29:58;21.90;46.70
3548;DHT22;1788;49.400;11.092;2022-09-02T08:34:53;22.10;46.40
3548;DHT22;1788;49.400;11.092;2022-09-02T08:37:19;22.30;46.30
3548;DHT22;1788;49.400;11.092;2022-09-02T08:39:47;22.50;45.50
3548;DHT22;1788;49.400;11.092;2022-09-02T08:42:19;22.50;45.50
3548;DHT22;1788;49.400;11.092;2022-09-02T08:44:41;22.60;45.00
3548;DHT22;1788;49.400;11.092;2022-09-02T08:47:09;22.60;45.00
3548;DHT22;1788;49.400;11.092;2022-09-02T08:49:37;22.80;45.10
3548;DHT22;1788;49.400;11.092;2022-09-02T08:52:03;22.70;44.70
3548;DHT22;1788;49.400;11.092;2022-09-02T08:54:34;23.00;44.30
3548;DHT22;1788;49.400;11.092;2022-09-02T08:56:58;23.10;44.10
3548;DHT22;1788;49.400;11.092;2022-09-02T08:59:25;23.10;44.00
3548;DHT22;1788;49.400;11.092;2022-09-02T09:04:20;23.20;42.90
3548;DHT22;1788;49.400;11.092;2022-09-02T09:16:36;23.50;41.80
3548;DHT22;1788;49.400;11.092;2022-09-02T09:21:29;23.60;41.30
3548;DHT22;1788;49.400;11.092;2022-09-02T09:23:54;23.60;41.30
3548;DHT22;1788;49.400;11.092;2022-09-02T09:26:25;23.70;41.00
3548;DHT22;1788;49.400;11.092;2022-09-02T09:28:48;23.70;40.90
3548;DHT22;1788;49.400;11.092;2022-09-02T09:36:09;23.90;40.20
3548;DHT22;1788;49.400;11.092;2022-09-02T09:38:36;23.90;39.60
3548;DHT22;1788;49.400;11.092;2022-09-02T09:43:30;23.90;39.00
3548;DHT22;1788;49.400;11.092;2022-09-02T09:45:56;23.90;38.60
3548;DHT22;1788;49.400;11.092;2022-09-02T09:48:25;23.90;38.50
3548;DHT22;1788;49.400;11.092;2022-09-02T09:53:18;24.10;38.50
3548;DHT22;1788;49.400;11.092;2022-09-02T09:58:12;24.10;37.40
3548;DHT22;1788;49.400;11.092;2022-09-02T10:00:38;24.20;37.10
3548;DHT22;1788;49.400;11.092;2022-09-02T10:03:05;24.20;36.90
3548;DHT22;1788;49.400;11.092;2022-09-02T10:05:33;24.20;36.80
3548;DHT22;1788;49.400;11.092;2022-09-02T10:10:25;24.30;37.10
3548;DHT22;1788;49.400;11.092;2022-09-02T10:12:53;24.40;37.00
3548;DHT22;1788;49.400;11.092;2022-09-02T10:15:21;24.50;37.00
3548;DHT22;1788;49.400;11.092;2022-09-02T10:34:58;25.40;36.10
3548;DHT22;1788;49.400;11.092;2022-09-02T10:37:22;25.60;35.40
3548;DHT22;1788;49.400;11.092;2022-09-02T10:42:17;25.70;35.50
3548;DHT22;1788;49.400;11.092;2022-09-02T10:52:05;25.90;34.80
3548;DHT22;1788;49.400;11.092;2022-09-02T11:06:44;26.30;34.50
3548;DHT22;1788;49.400;11.092;2022-09-02T11:11:39;26.20;33.90
3548;DHT22;1788;49.400;11.092;2022-09-02T11:14:11;26.20;33.80
3548;DHT22;1788;49.400;11.092;2022-09-02T11:23:56;25.80;34.20
3548;DHT22;1788;49.400;11.092;2022-09-02T11:26:20;25.90;34.40
3548;DHT22;1788;49.400;11.092;2022-09-02T11:28:48;26.10;34.40
3548;DHT22;1788;49.400;11.092;2022-09-02T11:36:06;26.30;33.80
3548;DHT22;1788;49.400;11.092;2022-09-02T11:38:35;26.30;33.70
3548;DHT22;1788;49.400;11.092;2022-09-02T11:58:10;26.50;33.10
3548;DHT22;1788;49.400;11.092;2022-09-02T12:03:08;26.50;33.10
3548;DHT22;1788;49.400;11.092;2022-09-02T12:15:20;26.40;33.20
3548;DHT22;1788;49.400;11.092;2022-09-02T12:22:40;26.30;32.90
3548;DHT22;1788;49.400;11.092;2022-09-02T12:27:34;26.40;33.00
3548;DHT22;1788;49.400;11.092;2022-09-02T12:30:01;26.40;32.90
3548;DHT22;1788;49.400;11.092;2022-09-02T12:34:54;26.30;32.70
3548;DHT22;1788;49.400;11.092;2022-09-02T12:39:50;26.50;32.80
3548;DHT22;1788;49.400;11.092;2022-09-02T12:42:18;26.80;33.30
3548;DHT22;1788;49.400;11.092;2022-09-02T12:52:04;28.70;31.20
3548;DHT22;1788;49.400;11.092;2022-09-02T12:54:33;28.70;31.20
3548;DHT22;1788;49.400;11.092;2022-09-02T12:56:58;29.50;30.00
3548;DHT22;1788;49.400;11.092;2022-09-02T12:59:28;29.50;30.00
3548;DHT22;1788;49.400;11.092;2022-09-02T13:01:55;29.70;29.90
3548;DHT22;1788;49.400;11.092;2022-09-02T13:09:14;30.80;28.90
3548;DHT22;1788;49.400;11.092;2022-09-02T13:16:37;32.30;27.80
3548;DHT22;1788;49.400;11.092;2022-09-02T13:26:24;34.10;26.40
3548;DHT22;1788;49.400;11.092;2022-09-02T13:31:18;33.80;26.20
3548;DHT22;1788;49.400;11.092;2022-09-02T13:33:42;34.10;25.80
3548;DHT22;1788;49.400;11.092;2022-09-02T13:36:08;34.10;25.80
3548;DHT22;1788;49.400;11.092;2022-09-02T13:38:36;33.30;25.70
3548;DHT22;1788;49.400;11.092;2022-09-02T13:41:02;33.30;25.70
3548;DHT22;1788;49.400;11.092;2022-09-02T13:43:30;33.10;25.80
3548;DHT22;1788;49.400;11.092;2022-09-02T13:48:25;33.20;25.60
3548;DHT22;1788;49.400;11.092;2022-09-02T13:50:51;33.20;25.60
3548;DHT22;1788;49.400;11.092;2022-09-02T14:00:39;32.70;25.60
3548;DHT22;1788;49.400;11.092;2022-09-02T14:05:32;33.30;25.60
3548;DHT22;1788;49.400;11.092;2022-09-02T14:07:59;33.40;25.30
3548;DHT22;1788;49.400;11.092;2022-09-02T14:10:26;33.50;25.20
3548;DHT22;1788;49.400;11.092;2022-09-02T14:12:53;33.40;25.20
3548;DHT22;1788;49.400;11.092;2022-09-02T14:18:05;33.30;25.70
3548;DHT22;1788;49.400;11.092;2022-09-02T14:20:17;33.30;25.10
3548;DHT22;1788;49.400;11.092;2022-09-02T14:22:40;33.30;25.10
3548;DHT22;1788;49.400;11.092;2022-09-02T14:25:10;33.00;25.00
3548;DHT22;1788;49.400;11.092;2022-09-02T14:27:33;32.70;25.20
3548;DHT22;1788;49.400;11.092;2022-09-02T14:30:00;32.60;25.30
3548;DHT22;1788;49.400;11.092;2022-09-02T14:32:27;32.40;25.30
3548;DHT22;1788;49.400;11.092;2022-09-02T14:42:14;31.70;25.60
3548;DHT22;1788;49.400;11.092;2022-09-02T14:44:44;31.60;26.00
3548;DHT22;1788;49.400;11.092;2022-09-02T14:47:11;31.60;25.90
3548;DHT22;1788;49.400;11.092;2022-09-02T14:49:38;31.50;26.40
3548;DHT22;1788;49.400;11.092;2022-09-02T14:56:58;31.60;26.20
3548;DHT22;1788;49.400;11.092;2022-09-02T14:59:25;31.60;26.20
3548;DHT22;1788;49.400;11.092;2022-09-02T15:01:52;31.40;26.70
3548;DHT22;1788;49.400;11.092;2022-09-02T15:04:19;31.40;26.40
3548;DHT22;1788;49.400;11.092;2022-09-02T15:06:46;31.40;26.40
3548;DHT22;1788;49.400;11.092;2022-09-02T15:09:12;31.30;26.50
3548;DHT22;1788;49.400;11.092;2022-09-02T15:11:39;31.20;26.50
3548;DHT22;1788;49.400;11.092;2022-09-02T15:14:06;31.20;26.60
3548;DHT22;1788;49.400;11.092;2022-09-02T15:16:33;31.30;26.60
3548;DHT22;1788;49.400;11.092;2022-09-02T15:19:00;31.00;26.70
3548;DHT22;1788;49.400;11.092;2022-09-02T15:21:27;31.00;26.70
3548;DHT22;1788;49.400;11.092;2022-09-02T15:23:53;30.80;26.70
3548;DHT22;1788;49.400;11.092;2022-09-02T15:26:20;30.70;26.70
3548;DHT22;1788;49.400;11.092;2022-09-02T15:28:46;30.50;26.80
3548;DHT22;1788;49.400;11.092;2022-09-02T15:31:14;30.30;27.10
3548;DHT22;1788;49.400;11.092;2022-09-02T15:33:40;30.30;27.00
3548;DHT22;1788;49.400;11.092;2022-09-02T15:36:09;29.80;27.20
3548;DHT22;1788;49.400;11.092;2022-09-02T15:38:35;29.70;27.20
3548;DHT22;1788;49.400;11.092;2022-09-02T15:43:30;29.20;27.40
3548;DHT22;1788;49.400;11.092;2022-09-02T15:45:57;28.90;27.50
3548;DHT22;1788;49.400;11.092;2022-09-02T15:48:24;28.30;28.00
3548;DHT22;1788;49.400;11.092;2022-09-02T15:50:51;28.20;27.90
3548;DHT22;1788;49.400;11.092;2022-09-02T15:53:18;27.90;28.50
3548;DHT22;1788;49.400;11.092;2022-09-02T15:55:44;27.80;28.40
3548;DHT22;1788;49.400;11.092;2022-09-02T15:58:12;27.50;28.60
3548;DHT22;1788;49.400;11.092;2022-09-02T16:00:38;27.50;28.60
3548;DHT22;1788;49.400;11.092;2022-09-02T16:03:06;27.40;28.80
3548;DHT22;1788;49.400;11.092;2022-09-02T16:05:32;27.30;28.90
3548;DHT22;1788;49.400;11.092;2022-09-02T16:08:00;27.20;29.00
3548;DHT22;1788;49.400;11.092;2022-09-02T16:10:26;27.10;29.00
3548;DHT22;1788;49.400;11.092;2022-09-02T16:12:54;26.80;29.00
3548;DHT22;1788;49.400;11.092;2022-09-02T16:15:20;26.80;29.00
3548;DHT22;1788;49.400;11.092;2022-09-02T16:17:48;26.40;29.20
3548;DHT22;1788;49.400;11.092;2022-09-02T16:20:14;26.40;29.20
3548;DHT22;1788;49.400;11.092;2022-09-02T16:22:41;26.30;29.30
3548;DHT22;1788;49.400;11.092;2022-09-02T16:25:08;26.20;29.50
3548;DHT22;1788;49.400;11.092;2022-09-02T16:27:34;26.20;29.60
3548;DHT22;1788;49.400;11.092;2022-09-02T16:30:01;26.10;29.60
3548;DHT22;1788;49.400;11.092;2022-09-02T16:32:28;26.10;29.60
3548;DHT22;1788;49.400;11.092;2022-09-02T16:34:55;26.00;30.00
3548;DHT22;1788;49.400;11.092;2022-09-02T16:37:22;26.00;29.70
3548;DHT22;1788;49.400;11.092;2022-09-02T16:39:49;25.90;29.80
3548;DHT22;1788;49.400;11.092;2022-09-02T16:42:16;25.90;29.80
3548;DHT22;1788;49.400;11.092;2022-09-02T16:44:43;25.80;29.90
3548;DHT22;1788;49.400;11.092;2022-09-02T16:47:10;25.80;30.10
3548;DHT22;1788;49.400;11.092;2022-09-02T16:49:37;25.80;30.10
3548;DHT22;1788;49.400;11.092;2022-09-02T16:52:04;25.80;30.20
3548;DHT22;1788;49.400;11.092;2022-09-02T16:54:32;25.70;30.30
3548;DHT22;1788;49.400;11.092;2022-09-02T16:56:59;25.60;30.30
3548;DHT22;1788;49.400;11.092;2022-09-02T16:59:27;25.30;31.10
3548;DHT22;1788;49.400;11.092;2022-09-02T17:01:53;25.30;30.40
3548;DHT22;1788;49.400;11.092;2022-09-02T17:04:20;25.20;30.50
3548;DHT22;1788;49.400;11.092;2022-09-02T17:06:46;25.10;30.60
3548;DHT22;1788;49.400;11.092;2022-09-02T17:09:14;25.00;30.80
3548;DHT22;1788;49.400;11.092;2022-09-02T17:11:42;24.80;31.40
3548;DHT22;1788;49.400;11.092;2022-09-02T17:14:10;24.80;31.10
3548;DHT22;1788;49.400;11.092;2022-09-02T17:16:37;24.70;31.20
3548;DHT22;1788;49.400;11.092;2022-09-02T17:19:02;24.60;31.30
3548;DHT22;1788;49.400;11.092;2022-09-02T17:21:30;24.50;31.50
3548;DHT22;1788;49.400;11.092;2022-09-02T17:23:56;24.40;31.60
3548;DHT22;1788;49.400;11.092;2022-09-02T17:26:23;24.30;31.60
3548;DHT22;1788;49.400;11.092;2022-09-02T17:28:49;24.30;31.80
3548;DHT22;1788;49.400;11.092;2022-09-02T17:31:17;24.20;31.90
3548;DHT22;1788;49.400;11.092;2022-09-02T17:33:44;24.10;32.00
3548;DHT22;1788;49.400;11.092;2022-09-02T17:36:10;24.10;32.10
3548;DHT22;1788;49.400;11.092;2022-09-02T17:38:37;24.00;32.20
3548;DHT22;1788;49.400;11.092;2022-09-02T17:41:04;23.90;32.30
3548;DHT22;1788;49.400;11.092;2022-09-02T17:43:31;23.90;32.50
3548;DHT22;1788;49.400;11.092;2022-09-02T17:48:24;23.90;32.80
3548;DHT22;1788;49.400;11.092;2022-09-02T17:50:52;23.80;32.90
3548;DHT22;1788;49.400;11.092;2022-09-02T17:53:18;23.70;33.00
3548;DHT22;1788;49.400;11.092;2022-09-02T17:55:45;23.70;33.10
3548;DHT22;1788;49.400;11.092;2022-09-02T17:58:12;23.60;33.40
3548;DHT22;1788;49.400;11.092;2022-09-02T18:00:38;23.60;33.60
3548;DHT22;1788;49.400;11.092;2022-09-02T18:05:42;23.50;34.00
3548;DHT22;1788;49.400;11.092;2022-09-02T18:10:24;23.40;34.20
3548;DHT22;1788;49.400;11.092;2022-09-02T18:12:53;23.30;34.40
3548;DHT22;1788;49.400;11.092;2022-09-02T18:15:19;23.30;34.60
3548;DHT22;1788;49.400;11.092;2022-09-02T18:17:46;23.20;34.60
3548;DHT22;1788;49.400;11.092;2022-09-02T18:20:16;23.20;34.70
3548;DHT22;1788;49.400;11.092;2022-09-02T18:25:11;23.10;35.20
3548;DHT22;1788;49.400;11.092;2022-09-02T18:32:31;23.00;35.90
3548;DHT22;1788;49.400;11.092;2022-09-02T18:37:25;22.80;36.30
3548;DHT22;1788;49.400;11.092;2022-09-02T18:44:45;22.60;36.70
3548;DHT22;1788;49.400;11.092;2022-09-02T18:49:34;22.50;37.00
3548;DHT22;1788;49.400;11.092;2022-09-02T18:52:01;22.50;37.30
3548;DHT22;1788;49.400;11.092;2022-09-02T18:56:56;22.30;37.60
3548;DHT22;1788;49.400;11.092;2022-09-02T19:01:48;22.20;37.60
3548;DHT22;1788;49.400;11.092;2022-09-02T19:04:14;22.10;37.60
3548;DHT22;1788;49.400;11.092;2022-09-02T19:06:41;22.10;37.70
3548;DHT22;1788;49.400;11.092;2022-09-02T19:09:10;22.10;37.80
3548;DHT22;1788;49.400;11.092;2022-09-02T19:11:35;22.00;37.80
3548;DHT22;1788;49.400;11.092;2022-09-02T19:14:08;22.00;38.00
3548;DHT22;1788;49.400;11.092;2022-09-02T19:16:28;21.90;38.00
3548;DHT22;1788;49.400;11.092;2022-09-02T19:18:54;21.90;38.10